sensor_id;sensor_type;location;lat;lon;timestamp;pressure;altitude;pressure_sealevel;temperature;humidity
43119;BME280;28729;49.838;8.650;2023-04-24T00:03:29;98611.84;;;11.57;100.00
43119;BME280;28729;49.838;8.650;2023-04-24T00:07:35;98602.16;;;11.59;100.00
43119;BME280;28729;49.838;8.650;2023-04-24T00:11:37;98599.13;;;11.66;100.00
43119;BME280;28729;49.838;8.650;2023-04-24T00:15:39;98588.31;;;11.70;100.00
43119;BME280;28729;49.838;8.650;2023-04-24T00:19:40;98586.34;;;11.75;100.00
43119;BME280;28729;49.838;8.650;2023-04-24T00:23:43;98576.13;;;11.76;100.00
43119;BME280;28729;49.838;8.650;2023-04-24T00:27:45;98573.63;;;11.74;100.00
43119;BME280;28729;49.838;8.650;2023-04-24T00:31:47;98571.19;;;11.73;100.00
43119;BME280;28729;49.838;8.650;2023-04-24T00:35:48;98576.69;;;11.73;100.00
43119;BME280;28729;49.838;8.650;2023-04-24T00:39:50;98568.69;;;11.71;100.00
43119;BME280;28729;49.838;8.650;2023-04-24T00:43:52;98571.47;;;11.71;100.00
43119;BME280;28729;49.838;8.650;2023-04-24T00:47:55;98555.47;;;11.68;100.00
43119;BME280;28729;49.838;8.650;2023-04-24T00:51:57;98564.66;;;11.58;100.00
43119;BME280;28729;49.838;8.650;2023-04-24T00:56:01;98562.19;;;11.57;100.00
43119;BME280;28729;49.838;8.650;2023-04-24T01:00:05;98562.44;;;11.60;100.00
43119;BME280;28729;49.838;8.650;2023-04-24T01:04:09;98561.06;;;11.63;100.00
43119;BME280;28729;49.838;8.650;2023-04-24T01:08:11;98557.75;;;11.61;100.00
43119;BME280;28729;49.838;8.650;2023-04-24T01:12:14;98548.59;;;11.66;100.00
43119;BME280;28729;49.838;8.650;2023-04-24T01:16:19;98549.50;;;11.56;100.00
43119;BME280;28729;49.838;8.650;2023-04-24T01:20:22;98561.47;;;11.41;100.00
43119;BME280;28729;49.838;8.650;2023-04-24T01:24:26;98552.16;;;11.27;100.00
43119;BME280;28729;49.838;8.650;2023-04-24T01:28:27;98551.69;;;11.20;100.00
43119;BME280;28729;49.838;8.650;2023-04-24T01:32:29;98566.03;;;11.16;100.00
43119;BME280;28729;49.838;8.650;2023-04-24T01:36:32;98567.09;;;11.26;100.00
43119;BME280;28729;49.838;8.650;2023-04-24T01:40:35;98575.06;;;11.27;100.00
43119;BME280;28729;49.838;8.650;2023-04-24T01:44:37;98564.00;;;11.32;100.00
43119;BME280;28729;49.838;8.650;2023-04-24T01:48:38;98564.53;;;11.39;100.00
43119;BME280;28729;49.838;8.650;2023-04-24T01:52:40;98551.25;;;11.41;100.00
43119;BME280;28729;49.838;8.650;2023-04-24T01:56:43;98556.50;;;11.43;100.00
43119;BME280;28729;49.838;8.650;2023-04-24T02:00:46;98557.56;;;11.47;100.00
43119;BME280;28729;49.838;8.650;2023-04-24T02:04:48;98549.88;;;11.39;100.00
43119;BME280;28729;49.838;8.650;2023-04-24T02:08:50;98562.28;;;11.41;100.00
43119;BME280;28729;49.838;8.650;2023-04-24T02:12:52;98547.66;;;11.46;100.00
43119;BME280;28729;49.838;8.650;2023-04-24T02:16:57;98547.91;;;11.50;100.00
43119;BME280;28729;49.838;8.650;2023-04-24T02:20:59;98552.03;;;11.52;100.00
43119;BME280;28729;49.838;8.650;2023-04-24T02:25:01;98556.72;;;11.52;100.00
43119;BME280;28729;49.838;8.650;2023-04-24T02:29:03;98560.06;;;11.49;100.00
43119;BME280;28729;49.838;8.650;2023-04-24T02:33:05;98569.97;;;11.50;100.00
43119;BME280;28729;49.838;8.650;2023-04-24T02:37:07;98576.63;;;11.44;100.00
43119;BME280;28729;49.838;8.650;2023-04-24T02:41:10;98576.91;;;11.42;100.00
43119;BME280;28729;49.838;8.650;2023-04-24T02:45:12;98578.03;;;11.36;100.00
43119;BME280;28729;49.838;8.650;2023-04-24T02:49:14;98582.25;;;11.28;100.00
43119;BME280;28729;49.838;8.650;2023-04-24T02:53:16;98579.25;;;11.20;100.00
43119;BME280;28729;49.838;8.650;2023-04-24T02:57:18;98581.22;;;11.14;100.00
43119;BME280;28729;49.838;8.650;2023-04-24T03:01:20;98580.69;;;11.07;100.00
43119;BME280;28729;49.838;8.650;2023-04-24T03:05:22;98584.59;;;11.01;100.00
43119;BME280;28729;49.838;8.650;2023-04-24T03:09:24;98598.66;;;10.94;100.00
43119;BME280;28729;49.838;8.650;2023-04-24T03:13:26;98608.09;;;10.83;100.00
43119;BME280;28729;49.838;8.650;2023-04-24T03:17:27;98611.41;;;10.80;100.00
43119;BME280;28729;49.838;8.650;2023-04-24T03:21:29;98608.94;;;10.73;100.00
43119;BME280;28729;49.838;8.650;2023-04-24T03:25:32;98602.34;;;10.69;100.00
43119;BME280;28729;49.838;8.650;2023-04-24T03:29:34;98599.59;;;10.59;100.00
43119;BME280;28729;49.838;8.650;2023-04-24T03:33:37;98612.31;;;10.44;100.00
43119;BME280;28729;49.838;8.650;2023-04-24T03:37:40;98614.53;;;10.32;100.00
43119;BME280;28729;49.838;8.650;2023-04-24T03:42:14;98621.97;;;10.26;100.00
43119;BME280;28729;49.838;8.650;2023-04-24T03:46:25;98614.50;;;10.22;100.00
43119;BME280;28729;49.838;8.650;2023-04-24T03:50:31;98616.72;;;10.10;100.00
43119;BME280;28729;49.838;8.650;2023-04-24T03:54:34;98615.63;;;10.06;100.00
43119;BME280;28729;49.838;8.650;2023-04-24T03:58:36;98628.00;;;10.03;100.00
43119;BME280;28729;49.838;8.650;2023-04-24T04:02:39;98647.53;;;9.96;100.00
43119;BME280;28729;49.838;8.650;2023-04-24T04:06:43;98651.94;;;9.92;100.00
43119;BME280;28729;49.838;8.650;2023-04-24T04:10:46;98659.09;;;9.83;100.00
43119;BME280;28729;49.838;8.650;2023-04-24T04:14:48;98658.78;;;9.64;100.00
43119;BME280;28729;49.838;8.650;2023-04-24T04:18:49;98658.75;;;9.49;100.00
43119;BME280;28729;49.838;8.650;2023-04-24T04:22:51;98655.41;;;9.31;100.00
43119;BME280;28729;49.838;8.650;2023-04-24T04:27:01;98664.69;;;9.20;100.00
43119;BME280;28729;49.838;8.650;2023-04-24T04:31:08;98672.59;;;9.06;100.00
43119;BME280;28729;49.838;8.650;2023-04-24T04:35:13;98676.94;;;8.97;100.00
43119;BME280;28729;49.838;8.650;2023-04-24T04:39:15;98676.91;;;8.92;100.00
43119;BME280;28729;49.838;8.650;2023-04-24T04:43:28;98681.84;;;8.85;100.00
43119;BME280;28729;49.838;8.650;2023-04-24T04:47:30;98681.28;;;8.83;100.00
43119;BME280;28729;49.838;8.650;2023-04-24T04:51:35;98684.00;;;8.78;100.00
43119;BME280;28729;49.838;8.650;2023-04-24T04:55:38;98688.66;;;8.77;100.00
43119;BME280;28729;49.838;8.650;2023-04-24T04:59:45;98695.84;;;8.83;100.00
43119;BME280;28729;49.838;8.650;2023-04-24T05:03:56;98702.72;;;8.86;100.00
43119;BME280;28729;49.838;8.650;2023-04-24T05:08:00;98712.34;;;8.88;100.00
43119;BME280;28729;49.838;8.650;2023-04-24T05:12:02;98716.19;;;8.87;100.00
43119;BME280;28729;49.838;8.650;2023-04-24T05:16:09;98719.81;;;8.93;100.00
43119;BME280;28729;49.838;8.650;2023-04-24T05:20:14;98736.63;;;9.07;100.00
43119;BME280;28729;49.838;8.650;2023-04-24T05:24:19;98744.97;;;9.27;100.00
43119;BME280;28729;49.838;8.650;2023-04-24T05:28:39;98751.34;;;9.33;100.00
43119;BME280;28729;49.838;8.650;2023-04-24T05:32:45;98757.38;;;9.30;100.00
43119;BME280;28729;49.838;8.650;2023-04-24T05:36:48;98756.31;;;9.36;100.00
43119;BME280;28729;49.838;8.650;2023-04-24T05:40:50;98761.06;;;9.56;100.00
43119;BME280;28729;49.838;8.650;2023-04-24T05:44:52;98759.25;;;9.82;100.00
43119;BME280;28729;49.838;8.650;2023-04-24T05:48:58;98780.22;;;10.03;100.00
43119;BME280;28729;49.838;8.650;2023-04-24T05:53:00;98779.91;;;10.05;100.00
43119;BME280;28729;49.838;8.650;2023-04-24T05:57:09;98788.44;;;9.88;100.00
43119;BME280;28729;49.838;8.650;2023-04-24T06:01:24;98796.63;;;9.78;100.00
43119;BME280;28729;49.838;8.650;2023-04-24T06:05:40;98799.38;;;9.73;100.00
43119;BME280;28729;49.838;8.650;2023-04-24T06:09:44;98794.16;;;9.76;100.00
43119;BME280;28729;49.838;8.650;2023-04-24T06:13:47;98792.19;;;9.72;100.00
43119;BME280;28729;49.838;8.650;2023-04-24T06:18:10;98793.56;;;9.69;100.00
43119;BME280;28729;49.838;8.650;2023-04-24T06:22:13;98802.63;;;9.65;100.00
43119;BME280;28729;49.838;8.650;2023-04-24T06:26:15;98800.97;;;9.64;100.00
43119;BME280;28729;49.838;8.650;2023-04-24T06:30:19;98801.81;;;9.64;100.00
43119;BME280;28729;49.838;8.650;2023-04-24T06:34:23;98807.59;;;9.68;100.00
43119;BME280;28729;49.838;8.650;2023-04-24T06:38:25;98807.63;;;9.73;100.00
43119;BME280;28729;49.838;8.650;2023-04-24T06:42:28;98814.78;;;9.74;100.00
43119;BME280;28729;49.838;8.650;2023-04-24T06:46:30;98821.69;;;9.81;100.00
43119;BME280;28729;49.838;8.650;2023-04-24T06:50:32;98826.41;;;9.96;100.00
43119;BME280;28729;49.838;8.650;2023-04-24T06:54:35;98821.06;;;10.32;100.00
43119;BME280;28729;49.838;8.650;2023-04-24T06:58:37;98821.09;;;10.73;100.00
43119;BME280;28729;49.838;8.650;2023-04-24T07:02:40;98824.41;;;10.75;100.00
43119;BME280;28729;49.838;8.650;2023-04-24T07:06:46;98821.66;;;10.65;100.00
43119;BME280;28729;49.838;8.650;2023-04-24T07:10:51;98816.13;;;10.85;100.00
43119;BME280;28729;49.838;8.650;2023-04-24T07:14:53;98822.75;;;11.05;100.00
43119;BME280;28729;49.838;8.650;2023-04-24T07:18:55;98826.88;;;11.02;100.00
43119;BME280;28729;49.838;8.650;2023-04-24T07:23:00;98819.94;;;11.35;100.00
43119;BME280;28729;49.838;8.650;2023-04-24T07:27:04;98821.75;;;11.71;100.00
43119;BME280;28729;49.838;8.650;2023-04-24T07:31:10;98827.28;;;11.71;98.83
43119;BME280;28729;49.838;8.650;2023-04-24T07:35:12;98826.81;;;11.48;97.21
43119;BME280;28729;49.838;8.650;2023-04-24T07:39:16;98832.63;;;11.36;98.65
43119;BME280;28729;49.838;8.650;2023-04-24T07:48:31;98838.63;;;11.69;98.45
43119;BME280;28729;49.838;8.650;2023-04-24T07:52:34;98830.91;;;11.66;99.24
43119;BME280;28729;49.838;8.650;2023-04-24T07:56:36;98832.19;;;11.94;98.56
43119;BME280;28729;49.838;8.650;2023-04-24T08:00:41;98840.25;;;11.75;97.04
43119;BME280;28729;49.838;8.650;2023-04-24T08:04:43;98851.88;;;11.57;90.68
43119;BME280;28729;49.838;8.650;2023-04-24T08:08:45;98840.63;;;11.43;83.53
43119;BME280;28729;49.838;8.650;2023-04-24T08:12:49;98841.59;;;11.83;79.82
43119;BME280;28729;49.838;8.650;2023-04-24T08:16:54;98840.53;;;12.39;75.15
43119;BME280;28729;49.838;8.650;2023-04-24T08:20:59;98844.03;;;12.94;75.93
43119;BME280;28729;49.838;8.650;2023-04-24T08:25:03;98853.41;;;12.93;72.37
43119;BME280;28729;49.838;8.650;2023-04-24T08:29:06;98865.63;;;12.87;75.47
43119;BME280;28729;49.838;8.650;2023-04-24T08:33:08;98854.53;;;12.92;75.44
43119;BME280;28729;49.838;8.650;2023-04-24T08:37:11;98864.50;;;12.88;75.27
43119;BME280;28729;49.838;8.650;2023-04-24T08:41:14;98879.22;;;12.83;71.77
43119;BME280;28729;49.838;8.650;2023-04-24T08:45:18;98891.38;;;13.16;68.20
43119;BME280;28729;49.838;8.650;2023-04-24T08:49:21;98885.16;;;13.64;67.99
43119;BME280;28729;49.838;8.650;2023-04-24T08:53:26;98911.06;;;13.78;66.49
43119;BME280;28729;49.838;8.650;2023-04-24T08:57:32;98904.53;;;13.35;68.67
43119;BME280;28729;49.838;8.650;2023-04-24T09:01:34;98901.50;;;12.97;68.63
43119;BME280;28729;49.838;8.650;2023-04-24T09:05:37;98908.13;;;12.96;69.39
43119;BME280;28729;49.838;8.650;2023-04-24T09:09:40;98919.38;;;12.70;69.41
43119;BME280;28729;49.838;8.650;2023-04-24T09:13:43;98928.38;;;12.42;69.76
43119;BME280;28729;49.838;8.650;2023-04-24T09:17:47;98932.84;;;12.22;71.45
43119;BME280;28729;49.838;8.650;2023-04-24T09:21:52;98933.63;;;12.43;69.47
43119;BME280;28729;49.838;8.650;2023-04-24T09:25:56;98938.38;;;12.27;71.46
43119;BME280;28729;49.838;8.650;2023-04-24T09:30:01;98938.84;;;12.45;72.68
43119;BME280;28729;49.838;8.650;2023-04-24T09:34:04;98948.84;;;12.30;71.49
43119;BME280;28729;49.838;8.650;2023-04-24T09:38:10;98953.50;;;12.40;71.32
43119;BME280;28729;49.838;8.650;2023-04-24T09:42:12;98950.19;;;12.43;72.36
43119;BME280;28729;49.838;8.650;2023-04-24T09:46:18;98967.06;;;12.37;72.70
43119;BME280;28729;49.838;8.650;2023-04-24T09:50:20;98958.19;;;12.50;73.40
43119;BME280;28729;49.838;8.650;2023-04-24T09:54:23;98953.72;;;12.59;72.14
43119;BME280;28729;49.838;8.650;2023-04-24T09:58:28;98958.41;;;12.59;72.85
43119;BME280;28729;49.838;8.650;2023-04-24T10:02:32;98964.56;;;12.95;71.74
43119;BME280;28729;49.838;8.650;2023-04-24T10:06:37;98962.75;;;13.14;70.58
43119;BME280;28729;49.838;8.650;2023-04-24T10:10:44;98958.56;;;13.27;69.54
43119;BME280;28729;49.838;8.650;2023-04-24T10:14:49;98959.72;;;13.16;69.01
43119;BME280;28729;49.838;8.650;2023-04-24T10:18:51;98959.84;;;13.00;71.78
43119;BME280;28729;49.838;8.650;2023-04-24T10:22:53;98968.28;;;12.75;70.37
43119;BME280;28729;49.838;8.650;2023-04-24T10:27:05;98990.28;;;12.41;73.20
43119;BME280;28729;49.838;8.650;2023-04-24T10:31:09;98983.69;;;12.21;75.14
43119;BME280;28729;49.838;8.650;2023-04-24T10:35:14;98986.75;;;12.15;75.86
43119;BME280;28729;49.838;8.650;2023-04-24T10:39:21;98991.97;;;12.16;76.45
43119;BME280;28729;49.838;8.650;2023-04-24T10:43:28;98994.09;;;12.50;76.79
43119;BME280;28729;49.838;8.650;2023-04-24T10:47:39;98990.19;;;13.06;74.22
43119;BME280;28729;49.838;8.650;2023-04-24T10:51:52;98987.97;;;13.52;70.85
43119;BME280;28729;49.838;8.650;2023-04-24T11:00:21;98989.34;;;14.85;64.26
43119;BME280;28729;49.838;8.650;2023-04-24T11:04:30;98983.97;;;14.22;64.13
43119;BME280;28729;49.838;8.650;2023-04-24T11:08:46;98987.56;;;13.35;67.19
43119;BME280;28729;49.838;8.650;2023-04-24T11:12:50;98994.53;;;13.22;69.91
43119;BME280;28729;49.838;8.650;2023-04-24T11:16:53;99001.97;;;12.82;69.12
43119;BME280;28729;49.838;8.650;2023-04-24T11:20:59;99015.09;;;12.51;72.50
43119;BME280;28729;49.838;8.650;2023-04-24T11:25:02;99011.25;;;12.37;73.07
43119;BME280;28729;49.838;8.650;2023-04-24T11:29:08;99017.59;;;12.37;74.99
43119;BME280;28729;49.838;8.650;2023-04-24T11:33:19;99031.50;;;12.12;79.37
43119;BME280;28729;49.838;8.650;2023-04-24T11:37:27;99020.47;;;11.60;80.89
43119;BME280;28729;49.838;8.650;2023-04-24T11:41:33;99017.72;;;11.45;82.67
43119;BME280;28729;49.838;8.650;2023-04-24T11:45:34;99017.16;;;11.43;82.30
43119;BME280;28729;49.838;8.650;2023-04-24T11:49:37;99019.06;;;11.48;82.63
43119;BME280;28729;49.838;8.650;2023-04-24T11:53:39;99030.09;;;11.48;82.41
43119;BME280;28729;49.838;8.650;2023-04-24T11:57:49;99042.00;;;11.48;98.57
43119;BME280;28729;49.838;8.650;2023-04-24T12:01:51;99056.50;;;11.03;100.00
43119;BME280;28729;49.838;8.650;2023-04-24T12:06:04;99067.47;;;10.82;100.00
43119;BME280;28729;49.838;8.650;2023-04-24T12:10:08;99063.47;;;10.53;100.00
43119;BME280;28729;49.838;8.650;2023-04-24T12:14:11;99047.41;;;10.34;100.00
43119;BME280;28729;49.838;8.650;2023-04-24T12:18:12;99050.31;;;10.60;100.00
43119;BME280;28729;49.838;8.650;2023-04-24T12:22:18;99051.81;;;10.93;100.00
43119;BME280;28729;49.838;8.650;2023-04-24T12:26:22;99058.81;;;11.77;100.00
43119;BME280;28729;49.838;8.650;2023-04-24T12:30:27;99060.84;;;12.83;97.13
43119;BME280;28729;49.838;8.650;2023-04-24T12:34:35;99063.06;;;12.81;93.12
43119;BME280;28729;49.838;8.650;2023-04-24T12:38:37;99059.50;;;13.35;92.29
43119;BME280;28729;49.838;8.650;2023-04-24T12:42:47;99052.97;;;14.76;78.36
43119;BME280;28729;49.838;8.650;2023-04-24T12:46:55;99055.09;;;14.61;72.04
43119;BME280;28729;49.838;8.650;2023-04-24T12:50:58;99060.25;;;14.14;69.83
43119;BME280;28729;49.838;8.650;2023-04-24T12:55:07;99060.88;;;14.64;71.00
43119;BME280;28729;49.838;8.650;2023-04-24T12:59:11;99050.09;;;15.81;65.19
43119;BME280;28729;49.838;8.650;2023-04-24T13:03:15;99045.19;;;18.16;60.22
43119;BME280;28729;49.838;8.650;2023-04-24T13:07:19;99039.94;;;18.46;51.21
43119;BME280;28729;49.838;8.650;2023-04-24T13:11:21;99050.63;;;17.76;53.23
43119;BME280;28729;49.838;8.650;2023-04-24T13:15:23;99050.34;;;17.28;54.76
43119;BME280;28729;49.838;8.650;2023-04-24T13:19:25;99054.38;;;17.36;55.04
43119;BME280;28729;49.838;8.650;2023-04-24T13:23:28;99054.25;;;17.41;49.25
43119;BME280;28729;49.838;8.650;2023-04-24T13:27:30;99036.56;;;18.27;46.26
43119;BME280;28729;49.838;8.650;2023-04-24T13:31:33;99050.25;;;18.14;46.38
43119;BME280;28729;49.838;8.650;2023-04-24T13:35:36;99041.16;;;19.02;43.76
43119;BME280;28729;49.838;8.650;2023-04-24T13:39:38;99060.03;;;18.03;44.85
43119;BME280;28729;49.838;8.650;2023-04-24T13:43:41;99061.31;;;16.69;47.71
43119;BME280;28729;49.838;8.650;2023-04-24T13:47:45;99056.47;;;16.01;51.79
43119;BME280;28729;49.838;8.650;2023-04-24T13:51:47;99060.53;;;15.52;51.71
43119;BME280;28729;49.838;8.650;2023-04-24T13:55:52;99059.03;;;15.02;54.40
43119;BME280;28729;49.838;8.650;2023-04-24T13:59:55;99070.94;;;15.03;54.62
43119;BME280;28729;49.838;8.650;2023-04-24T14:04:07;99066.34;;;14.93;55.11
43119;BME280;28729;49.838;8.650;2023-04-24T14:08:13;99065.94;;;14.81;55.02
43119;BME280;28729;49.838;8.650;2023-04-24T14:12:14;99055.84;;;14.66;55.09
43119;BME280;28729;49.838;8.650;2023-04-24T14:16:19;99064.28;;;14.80;56.54
43119;BME280;28729;49.838;8.650;2023-04-24T14:20:22;99056.16;;;14.65;56.10
43119;BME280;28729;49.838;8.650;2023-04-24T14:24:25;99067.00;;;14.61;56.78
43119;BME280;28729;49.838;8.650;2023-04-24T14:28:27;99073.03;;;14.39;56.40
43119;BME280;28729;49.838;8.650;2023-04-24T14:32:29;99081.03;;;14.17;57.37
43119;BME280;28729;49.838;8.650;2023-04-24T14:36:31;99076.78;;;13.95;58.24
43119;BME280;28729;49.838;8.650;2023-04-24T14:40:33;99079.59;;;13.90;59.04
43119;BME280;28729;49.838;8.650;2023-04-24T14:44:38;99085.75;;;13.82;56.93
43119;BME280;28729;49.838;8.650;2023-04-24T14:48:42;99087.38;;;13.83;57.20
43119;BME280;28729;49.838;8.650;2023-04-24T14:52:45;99091.28;;;13.82;57.58
43119;BME280;28729;49.838;8.650;2023-04-24T14:56:50;99081.56;;;13.84;58.46
43119;BME280;28729;49.838;8.650;2023-04-24T15:00:52;99090.28;;;13.67;59.25
43119;BME280;28729;49.838;8.650;2023-04-24T15:04:57;99083.81;;;13.43;59.84
43119;BME280;28729;49.838;8.650;2023-04-24T15:09:01;99096.34;;;13.30;61.06
43119;BME280;28729;49.838;8.650;2023-04-24T15:13:03;99094.44;;;13.15;61.06
43119;BME280;28729;49.838;8.650;2023-04-24T15:17:05;99091.94;;;13.14;61.65
43119;BME280;28729;49.838;8.650;2023-04-24T15:21:07;99090.28;;;13.18;60.70
43119;BME280;28729;49.838;8.650;2023-04-24T15:25:09;99090.81;;;13.30;60.79
43119;BME280;28729;49.838;8.650;2023-04-24T15:29:12;99085.63;;;13.58;60.70
43119;BME280;28729;49.838;8.650;2023-04-24T15:33:15;99077.13;;;14.18;57.88
43119;BME280;28729;49.838;8.650;2023-04-24T15:37:19;99079.47;;;14.34;58.04
43119;BME280;28729;49.838;8.650;2023-04-24T15:41:22;99082.44;;;14.43;57.26
43119;BME280;28729;49.838;8.650;2023-04-24T15:45:26;99080.94;;;14.51;56.43
43119;BME280;28729;49.838;8.650;2023-04-24T15:49:28;99081.50;;;14.53;55.86
43119;BME280;28729;49.838;8.650;2023-04-24T15:53:33;99090.66;;;14.53;55.12
43119;BME280;28729;49.838;8.650;2023-04-24T15:57:35;99078.97;;;14.80;54.61
43119;BME280;28729;49.838;8.650;2023-04-24T16:01:36;99075.38;;;15.61;52.64
43119;BME280;28729;49.838;8.650;2023-04-24T16:05:38;99075.78;;;15.54;52.16
43119;BME280;28729;49.838;8.650;2023-04-24T16:09:41;99090.75;;;15.15;53.49
43119;BME280;28729;49.838;8.650;2023-04-24T16:13:47;99089.03;;;14.76;55.40
43119;BME280;28729;49.838;8.650;2023-04-24T16:17:49;99085.66;;;14.50;56.34
43119;BME280;28729;49.838;8.650;2023-04-24T16:21:52;99091.41;;;14.30;57.55
43119;BME280;28729;49.838;8.650;2023-04-24T16:25:56;99085.81;;;14.06;57.65
43119;BME280;28729;49.838;8.650;2023-04-24T16:29:59;99087.97;;;13.80;59.62
43119;BME280;28729;49.838;8.650;2023-04-24T16:34:01;99087.81;;;13.66;60.54
43119;BME280;28729;49.838;8.650;2023-04-24T16:38:03;99089.84;;;13.50;62.17
43119;BME280;28729;49.838;8.650;2023-04-24T16:42:07;99099.34;;;13.39;63.25
43119;BME280;28729;49.838;8.650;2023-04-24T16:46:10;99107.16;;;13.27;65.49
43119;BME280;28729;49.838;8.650;2023-04-24T16:50:12;99101.31;;;13.28;66.69
43119;BME280;28729;49.838;8.650;2023-04-24T16:54:14;99088.03;;;13.75;66.66
43119;BME280;28729;49.838;8.650;2023-04-24T16:58:16;99079.56;;;13.95;65.46
43119;BME280;28729;49.838;8.650;2023-04-24T17:02:18;99090.69;;;13.51;66.44
43119;BME280;28729;49.838;8.650;2023-04-24T17:06:21;99085.66;;;13.03;69.07
43119;BME280;28729;49.838;8.650;2023-04-24T17:10:25;99088.25;;;12.74;71.85
43119;BME280;28729;49.838;8.650;2023-04-24T17:14:29;99084.44;;;12.54;74.15
43119;BME280;28729;49.838;8.650;2023-04-24T17:18:33;99087.78;;;12.36;76.83
43119;BME280;28729;49.838;8.650;2023-04-24T17:22:35;99094.47;;;12.20;77.01
43119;BME280;28729;49.838;8.650;2023-04-24T17:26:37;99099.44;;;12.07;79.17
43119;BME280;28729;49.838;8.650;2023-04-24T17:30:40;99120.13;;;11.90;82.73
43119;BME280;28729;49.838;8.650;2023-04-24T17:34:41;99122.88;;;11.69;83.31
43119;BME280;28729;49.838;8.650;2023-04-24T17:38:43;99120.31;;;11.47;84.69
43119;BME280;28729;49.838;8.650;2023-04-24T17:42:45;99116.97;;;11.30;87.34
43119;BME280;28729;49.838;8.650;2023-04-24T17:46:47;99123.81;;;11.07;90.95
43119;BME280;28729;49.838;8.650;2023-04-24T17:50:51;99137.44;;;10.71;100.00
43119;BME280;28729;49.838;8.650;2023-04-24T17:54:53;99145.75;;;10.07;100.00
43119;BME280;28729;49.838;8.650;2023-04-24T17:58:55;99147.31;;;9.38;100.00
43119;BME280;28729;49.838;8.650;2023-04-24T18:03:01;99147.50;;;9.09;100.00
43119;BME280;28729;49.838;8.650;2023-04-24T18:07:04;99149.56;;;8.97;100.00
43119;BME280;28729;49.838;8.650;2023-04-24T18:11:08;99150.28;;;8.87;100.00
43119;BME280;28729;49.838;8.650;2023-04-24T18:15:10;99157.28;;;8.78;100.00
43119;BME280;28729;49.838;8.650;2023-04-24T18:19:15;99155.28;;;8.74;100.00
43119;BME280;28729;49.838;8.650;2023-04-24T18:23:18;99158.88;;;8.74;100.00
43119;BME280;28729;49.838;8.650;2023-04-24T18:27:23;99166.78;;;8.71;100.00
43119;BME280;28729;49.838;8.650;2023-04-24T18:31:26;99176.97;;;8.70;100.00
43119;BME280;28729;49.838;8.650;2023-04-24T18:35:30;99168.41;;;8.66;100.00
43119;BME280;28729;49.838;8.650;2023-04-24T18:39:31;99168.47;;;8.72;100.00
43119;BME280;28729;49.838;8.650;2023-04-24T18:43:35;99162.47;;;8.75;100.00
43119;BME280;28729;49.838;8.650;2023-04-24T18:47:38;99166.75;;;8.87;100.00
43119;BME280;28729;49.838;8.650;2023-04-24T18:51:41;99164.31;;;8.91;100.00
43119;BME280;28729;49.838;8.650;2023-04-24T18:55:54;99163.31;;;8.97;100.00
43119;BME280;28729;49.838;8.650;2023-04-24T18:59:56;99165.94;;;9.09;100.00
43119;BME280;28729;49.838;8.650;2023-04-24T19:03:58;99166.50;;;9.11;100.00
43119;BME280;28729;49.838;8.650;2023-04-24T19:08:00;99170.41;;;9.15;100.00
43119;BME280;28729;49.838;8.650;2023-04-24T19:12:02;99172.91;;;9.17;100.00
43119;BME280;28729;49.838;8.650;2023-04-24T19:16:04;99179.53;;;9.21;100.00
43119;BME280;28729;49.838;8.650;2023-04-24T19:20:06;99186.97;;;9.20;100.00
43119;BME280;28729;49.838;8.650;2023-04-24T19:24:09;99190.84;;;9.24;100.00
43119;BME280;28729;49.838;8.650;2023-04-24T19:28:12;99190.59;;;9.26;100.00
43119;BME280;28729;49.838;8.650;2023-04-24T19:32:15;99191.16;;;9.28;100.00
43119;BME280;28729;49.838;8.650;2023-04-24T19:36:18;99196.63;;;9.23;100.00
43119;BME280;28729;49.838;8.650;2023-04-24T19:40:20;99197.66;;;9.17;100.00
43119;BME280;28729;49.838;8.650;2023-04-24T19:44:22;99197.38;;;9.18;100.00
43119;BME280;28729;49.838;8.650;2023-04-24T19:48:27;99197.69;;;9.22;100.00
43119;BME280;28729;49.838;8.650;2023-04-24T19:52:32;99197.44;;;9.23;100.00
43119;BME280;28729;49.838;8.650;2023-04-24T19:56:33;99189.78;;;9.25;100.00
43119;BME280;28729;49.838;8.650;2023-04-24T20:00:35;99199.91;;;9.25;100.00
43119;BME280;28729;49.838;8.650;2023-04-24T20:04:37;99191.13;;;9.23;100.00
43119;BME280;28729;49.838;8.650;2023-04-24T20:08:39;99199.59;;;9.21;100.00
43119;BME280;28729;49.838;8.650;2023-04-24T20:12:43;99204.78;;;9.18;100.00
43119;BME280;28729;49.838;8.650;2023-04-24T20:16:44;99198.84;;;9.04;100.00
43119;BME280;28729;49.838;8.650;2023-04-24T20:20:46;99202.44;;;9.04;100.00
43119;BME280;28729;49.838;8.650;2023-04-24T20:24:48;99208.50;;;9.06;100.00
43119;BME280;28729;49.838;8.650;2023-04-24T20:28:50;99205.00;;;9.11;100.00
43119;BME280;28729;49.838;8.650;2023-04-24T20:32:53;99195.13;;;9.15;100.00
43119;BME280;28729;49.838;8.650;2023-04-24T20:36:57;99191.88;;;9.18;100.00
43119;BME280;28729;49.838;8.650;2023-04-24T20:41:01;99192.97;;;9.17;100.00
43119;BME280;28729;49.838;8.650;2023-04-24T20:45:04;99188.31;;;9.18;100.00
43119;BME280;28729;49.838;8.650;2023-04-24T20:49:06;99183.63;;;9.18;100.00
43119;BME280;28729;49.838;8.650;2023-04-24T20:53:09;99184.44;;;9.19;100.00
43119;BME280;28729;49.838;8.650;2023-04-24T20:57:11;99184.44;;;9.19;100.00
43119;BME280;28729;49.838;8.650;2023-04-24T21:01:14;99177.63;;;9.21;100.00
43119;BME280;28729;49.838;8.650;2023-04-24T21:05:16;99180.94;;;9.23;100.00
43119;BME280;28729;49.838;8.650;2023-04-24T21:09:18;99177.09;;;9.24;100.00
43119;BME280;28729;49.838;8.650;2023-04-24T21:13:20;99174.94;;;9.26;100.00
43119;BME280;28729;49.838;8.650;2023-04-24T21:17:23;99176.59;;;9.27;100.00
43119;BME280;28729;49.838;8.650;2023-04-24T21:21:25;99170.56;;;9.30;100.00
43119;BME280;28729;49.838;8.650;2023-04-24T21:25:27;99172.50;;;9.30;100.00
43119;BME280;28729;49.838;8.650;2023-04-24T21:29:31;99166.19;;;9.29;100.00
43119;BME280;28729;49.838;8.650;2023-04-24T21:33:33;99167.50;;;9.27;100.00
43119;BME280;28729;49.838;8.650;2023-04-24T21:37:35;99166.94;;;9.25;100.00